Time;durP1;ratioP1;P1;durP2;ratioP2;P2;SDS_P1;SDS_P2;PMS_P1;PMS_P2;Temp;Humidity;BMP_temperature;BMP_pressure;BME280_temperature;BME280_humidity;BME280_pressure;Samples;Min_cycle;Max_cycle;Signal;HPM_P1;HPM_P2
2022/03/26 00:00:47;;;;;;;42.75;12.20;;;;;;;6.74;36.83;94739.16;5024916;28;20036;-71
2022/03/26 00:03:13;;;;;;;31.92;10.85;;;;;;;6.71;36.58;94746.84;5024960;28;20026;-71
2022/03/26 00:05:39;;;;;;;29.88;8.90;;;;;;;6.69;36.62;94741.03;5024803;28;20072;-72
2022/03/26 00:08:05;;;;;;;20.52;7.10;;;;;;;6.65;35.55;94747.91;5024698;28;20197;-71
2022/03/26 00:10:31;;;;;;;21.10;7.43;;;;;;;6.65;35.54;94750.56;5024537;28;20049;-71
2022/03/26 00:12:57;;;;;;;23.58;7.00;;;;;;;6.64;35.70;94747.13;5024542;28;20316;-71
2022/03/26 00:15:23;;;;;;;21.23;7.57;;;;;;;6.62;36.01;94744.75;5024525;28;20034;-71
2022/03/26 00:17:49;;;;;;;20.40;8.38;;;;;;;6.62;36.20;94755.34;5024788;28;20063;-72
2022/03/26 00:20:14;;;;;;;26.65;9.68;;;;;;;6.56;36.75;94756.41;5024839;28;20323;-71
2022/03/26 00:22:40;;;;;;;30.63;11.70;;;;;;;6.53;37.13;94754.25;5024455;28;20033;-72
2022/03/26 00:25:06;;;;;;;31.33;13.07;;;;;;;6.51;36.91;94752.94;5024438;28;20029;-72
2022/03/26 00:27:32;;;;;;;29.02;11.43;;;;;;;6.47;36.84;94757.97;5024330;28;20025;-71
2022/03/26 00:29:58;;;;;;;30.52;11.60;;;;;;;6.39;37.10;94751.38;5024463;28;20025;-71
2022/03/26 00:32:24;;;;;;;44.53;11.98;;;;;;;6.42;37.16;94752.69;5024545;28;20236;-72
2022/03/26 00:34:49;;;;;;;31.05;12.20;;;;;;;6.35;37.49;94752.16;5024390;28;20060;-72
2022/03/26 00:37:16;;;;;;;33.90;11.57;;;;;;;6.34;37.60;94758.50;5006760;28;20202;-71
2022/03/26 00:39:42;;;;;;;27.60;11.07;;;;;;;6.30;37.98;94754.81;5006391;28;20033;-71
2022/03/26 00:42:08;;;;;;;32.33;11.93;;;;;;;6.30;38.35;94754.81;5024201;28;20026;-71
2022/03/26 00:44:38;;;;;;;34.25;11.13;;;;;;;6.26;38.38;94762.47;5024060;28;20021;-71
2022/03/26 00:47:04;;;;;;;34.70;11.43;;;;;;;6.22;38.58;94767.50;5024137;28;20052;-71
2022/03/26 00:49:30;;;;;;;30.13;10.32;;;;;;;6.14;38.62;94767.22;5023697;28;20022;-71
2022/03/26 00:51:56;;;;;;;21.98;8.18;;;;;;;6.09;38.80;94772.53;5023961;28;20198;-72
2022/03/26 00:54:22;;;;;;;22.58;7.80;;;;;;;6.04;38.90;94770.63;5023958;28;20022;-72
2022/03/26 00:56:47;;;;;;;22.80;8.60;;;;;;;6.02;39.26;94767.47;5023809;28;20053;-71
2022/03/26 00:59:13;;;;;;;30.55;11.80;;;;;;;5.99;39.25;94768.00;5006308;28;20026;-71
2022/03/26 01:01:38;;;;;;;34.15;10.98;;;;;;;5.97;39.25;94770.13;5024032;28;20049;-71
2022/03/26 01:04:04;;;;;;;43.58;13.88;;;;;;;5.91;39.53;94766.63;5023867;28;20100;-71
2022/03/26 01:06:29;;;;;;;36.58;11.95;;;;;;;5.82;39.65;94769.00;5023623;28;20354;-71
2022/03/26 01:08:55;;;;;;;35.03;12.63;;;;;;;5.78;39.89;94773.22;5023927;28;20064;-71
2022/03/26 01:11:21;;;;;;;44.40;13.48;;;;;;;5.79;39.73;94779.28;5023781;28;20252;-71
2022/03/26 01:13:48;;;;;;;33.10;12.00;;;;;;;5.74;39.72;94774.78;5023603;28;20034;-71
2022/03/26 01:16:13;;;;;;;45.42;16.60;;;;;;;5.72;39.78;94790.13;5023400;28;20194;-71
2022/03/26 01:18:40;;;;;;;59.60;17.25;;;;;;;5.70;40.09;94786.94;5023562;28;20040;-71
2022/03/26 01:21:05;;;;;;;51.85;13.90;;;;;;;5.66;40.05;94785.88;5023295;28;20096;-72
2022/03/26 01:23:31;;;;;;;37.10;13.13;;;;;;;5.60;40.18;94792.19;5023127;28;20316;-72
2022/03/26 01:25:58;;;;;;;31.20;12.57;;;;;;;5.53;40.15;94791.63;5023768;28;20071;-71
2022/03/26 01:28:24;;;;;;;32.05;13.88;;;;;;;5.49;40.25;94786.03;5023360;28;20227;-72
2022/03/26 01:30:49;;;;;;;27.67;10.45;;;;;;;5.45;40.31;94794.75;5023431;28;20029;-72
2022/03/26 01:33:15;;;;;;;29.52;10.80;;;;;;;5.39;40.42;94792.09;5023344;28;20032;-71
2022/03/26 01:35:40;;;;;;;23.70;10.05;;;;;;;5.38;40.58;94789.72;5023116;28;20021;-72
2022/03/26 01:38:06;;;;;;;25.50;10.93;;;;;;;5.39;40.47;94794.75;5023244;28;20335;-72
2022/03/26 01:40:34;;;;;;;24.58;9.60;;;;;;;5.40;40.63;94796.31;5023221;28;20089;-72
2022/03/26 01:43:00;;;;;;;36.55;10.73;;;;;;;5.31;40.96;94792.59;5023033;28;20029;-72
2022/03/26 01:45:29;;;;;;;30.10;10.70;;;;;;;5.27;41.04;94785.41;5023261;28;20076;-72
2022/03/26 01:47:56;;;;;;;38.72;11.75;;;;;;;5.22;41.28;94802.81;5023247;28;20021;-72
2022/03/26 01:50:22;;;;;;;30.05;11.50;;;;;;;5.17;41.36;94784.31;5023006;28;20018;-72
2022/03/26 01:52:48;;;;;;;27.35;11.98;;;;;;;5.18;41.26;94790.38;5022905;28;20053;-72
2022/03/26 01:55:13;;;;;;;32.90;11.95;;;;;;;5.15;41.57;94789.06;5023069;28;20323;-72
2022/03/26 01:57:39;;;;;;;30.35;13.10;;;;;;;5.16;41.32;94792.50;5022688;28;20017;-72
2022/03/26 02:00:08;;;;;;;28.65;12.23;;;;;;;5.14;41.63;94795.38;5022780;28;20087;-72
2022/03/26 02:02:34;;;;;;;42.55;12.90;;;;;;;5.03;41.60;94797.19;5022859;28;20080;-72
2022/03/26 02:04:59;;;;;;;43.90;13.25;;;;;;;4.98;41.56;94801.63;5022976;28;20193;-72
2022/03/26 02:07:25;;;;;;;37.35;12.07;;;;;;;4.96;41.54;94809.00;5023044;28;20076;-72
2022/03/26 02:09:51;;;;;;;37.88;10.77;;;;;;;4.99;41.02;94798.75;5022956;28;20033;-69
2022/03/26 02:12:27;;;;;;;39.30;12.18;;;;;;;4.99;41.34;94797.94;5022689;28;20112;-71
2022/03/26 02:14:54;;;;;;;27.30;12.10;;;;;;;4.92;41.08;94808.72;5022762;28;20026;-71
2022/03/26 02:17:20;;;;;;;24.67;10.48;;;;;;;4.90;41.31;94807.38;5022900;28;20197;-71
2022/03/26 02:19:49;;;;;;;39.78;13.40;;;;;;;4.89;42.06;94808.44;5022650;28;20041;-71
2022/03/26 02:22:15;;;;;;;34.47;14.07;;;;;;;4.82;42.18;94809.47;5022654;28;20030;-71
2022/03/26 02:24:41;;;;;;;41.45;13.02;;;;;;;4.74;42.15;94806.47;5022730;28;20118;-71
2022/03/26 02:27:08;;;;;;;32.92;12.20;;;;;;;4.76;41.91;94801.72;5022697;28;20084;-71
2022/03/26 02:29:33;;;;;;;40.20;13.13;;;;;;;4.80;42.13;94810.75;5022521;28;20022;-71
2022/03/26 02:31:58;;;;;;;43.67;12.55;;;;;;;4.77;42.36;94805.97;5022582;28;20367;-71
2022/03/26 02:34:24;;;;;;;44.45;15.50;;;;;;;4.77;42.30;94803.34;5024640;28;20022;-71
2022/03/26 02:36:54;;;;;;;53.85;15.85;;;;;;;4.73;42.49;94812.81;5026404;28;20022;-71
2022/03/26 02:39:19;;;;;;;48.67;14.15;;;;;;;4.73;42.38;94810.97;5026450;28;20221;-71
2022/03/26 02:41:45;;;;;;;48.63;15.05;;;;;;;4.75;42.07;94808.06;5026390;28;20026;-71
2022/03/26 02:44:10;;;;;;;50.72;15.45;;;;;;;4.77;42.30;94805.97;5026399;28;20312;-71
2022/03/26 02:46:37;;;;;;;33.42;12.85;;;;;;;4.75;42.46;94805.44;5026472;28;20026;-71
2022/03/26 02:49:02;;;;;;;31.58;11.55;;;;;;;4.67;42.54;94811.97;5026283;28;20049;-71
2022/03/26 02:51:28;;;;;;;27.83;9.60;;;;;;;4.61;42.00;94803.22;5026231;28;20124;-71
2022/03/26 02:53:54;;;;;;;24.40;7.88;;;;;;;4.61;41.79;94803.22;5026272;28;20029;-71
2022/03/26 02:56:19;;;;;;;15.75;7.53;;;;;;;4.62;41.00;94819.88;5026291;28;20018;-71
2022/03/26 02:58:47;;;;;;;15.18;8.10;;;;;;;4.66;41.01;94815.69;5008486;28;20382;-71
2022/03/26 03:01:13;;;;;;;18.05;7.90;;;;;;;4.65;41.01;94808.00;5025965;28;20021;-71
2022/03/26 03:03:38;;;;;;;20.85;8.68;;;;;;;4.70;40.68;94818.59;5025860;28;20026;-71
2022/03/26 03:06:04;;;;;;;18.40;8.20;;;;;;;4.70;41.48;94815.94;5025938;28;20038;-71
2022/03/26 03:08:29;;;;;;;23.98;10.20;;;;;;;4.67;41.73;94822.53;5025969;28;20340;-71
2022/03/26 03:10:55;;;;;;;20.17;9.63;;;;;;;4.68;42.17;94818.88;5026045;28;20018;-71
2022/03/26 03:13:22;;;;;;;32.08;9.95;;;;;;;4.66;42.20;94825.41;5025916;28;20021;-71
2022/03/26 03:15:48;;;;;;;18.85;8.57;;;;;;;4.60;42.52;94828.03;5025656;28;20026;-71
2022/03/26 03:18:13;;;;;;;21.15;10.02;;;;;;;4.56;42.48;94826.94;5025727;28;20026;-71
2022/03/26 03:20:39;;;;;;;22.05;9.43;;;;;;;4.54;42.55;94834.31;5025824;28;20351;-71
2022/03/26 03:23:05;;;;;;;19.65;8.77;;;;;;;4.51;42.80;94829.53;5025663;28;20018;-71
2022/03/26 03:25:31;;;;;;;34.50;10.48;;;;;;;4.47;42.84;94831.06;5025572;28;20021;-72
2022/03/26 03:27:57;;;;;;;22.02;9.80;;;;;;;4.43;42.51;94837.91;5025755;28;20025;-71
2022/03/26 03:30:23;;;;;;;25.00;11.38;;;;;;;4.41;42.53;94835.50;5025613;28;20243;-71
2022/03/26 03:32:48;;;;;;;26.02;9.68;;;;;;;4.37;42.73;94830.97;5025568;28;20030;-71
2022/03/26 03:35:14;;;;;;;23.90;10.80;;;;;;;4.29;42.99;94832.22;5025310;28;20026;-71
2022/03/26 03:37:40;;;;;;;23.67;11.05;;;;;;;4.27;43.44;94825.59;5025334;28;20032;-71
2022/03/26 03:40:07;;;;;;;24.90;11.07;;;;;;;4.23;43.34;94830.59;5025475;28;20030;-71
2022/03/26 03:42:33;;;;;;;20.88;10.15;;;;;;;4.18;43.52;94827.91;5025204;28;20056;-71
2022/03/26 03:44:58;;;;;;;21.65;10.25;;;;;;;4.13;43.54;94823.38;5007699;28;20017;-71
2022/03/26 03:47:24;;;;;;;19.88;8.90;;;;;;;4.14;43.16;94830.25;5025286;28;20033;-71
2022/03/26 03:49:49;;;;;;;19.45;9.10;;;;;;;4.10;43.42;94825.72;5024997;28;20021;-71
2022/03/26 03:52:16;;;;;;;25.10;9.05;;;;;;;4.06;43.57;94829.91;5024935;28;20061;-71
2022/03/26 03:54:41;;;;;;;26.45;9.57;;;;;;;4.01;43.56;94828.78;5025083;28;20022;-71
2022/03/26 03:57:07;;;;;;;25.55;10.43;;;;;;;3.91;43.64;94831.31;5025202;28;20053;-72
2022/03/26 03:59:32;;;;;;;26.58;10.18;;;;;;;3.91;44.05;94833.97;5024904;28;20028;-71
2022/03/26 04:01:58;;;;;;;27.95;10.48;;;;;;;3.91;43.84;94819.97;5024955;28;20048;-72
2022/03/26 04:04:23;;;;;;;23.63;9.27;;;;;;;3.83;44.14;94837.03;5024883;28;20093;-72
2022/03/26 04:06:48;;;;;;;20.38;8.20;;;;;;;3.84;44.25;94832.56;5024894;28;20228;-72
2022/03/26 04:09:14;;;;;;;28.70;9.45;;;;;;;3.80;43.82;94846.22;5024862;28;20030;-71
2022/03/26 04:11:40;;;;;;;19.10;7.78;;;;;;;3.80;43.26;94843.56;5024680;28;20034;-71
2022/03/26 04:14:06;;;;;;;13.70;7.00;;;;;;;3.80;42.29;94846.22;5024809;28;20100;-71
2022/03/26 04:16:32;;;;;;;16.40;7.43;;;;;;;3.84;41.58;94845.75;5024797;28;20025;-71
2022/03/26 04:18:58;;;;;;;15.02;6.28;;;;;;;3.89;41.54;94853.69;5024690;28;20228;-71
2022/03/26 04:21:24;;;;;;;12.90;6.35;;;;;;;3.92;41.72;94854.00;5024537;28;20022;-71
2022/03/26 04:23:50;;;;;;;24.38;7.78;;;;;;;3.95;41.40;94845.63;5024386;28;20300;-71
2022/03/26 04:26:15;;;;;;;14.43;7.80;;;;;;;4.01;41.30;94857.03;5024652;28;20029;-71
2022/03/26 04:28:41;;;;;;;26.15;8.43;;;;;;;4.05;41.72;94857.31;5024545;28;20026;-70
2022/03/26 04:31:08;;;;;;;13.10;7.07;;;;;;;4.10;41.44;94862.66;5024406;28;20045;-70
2022/03/26 04:33:34;;;;;;;20.63;8.00;;;;;;;4.09;41.89;94864.50;5024319;28;20068;-70
2022/03/26 04:35:59;;;;;;;17.58;7.57;;;;;;;4.10;41.83;94865.28;5024360;28;20252;-70
2022/03/26 04:38:25;;;;;;;18.63;8.23;;;;;;;4.08;41.74;94862.09;5024193;28;20030;-70
2022/03/26 04:40:50;;;;;;;25.77;7.57;;;;;;;4.10;41.79;94870.56;5024277;28;20077;-71
2022/03/26 04:43:18;;;;;;;22.35;8.20;;;;;;;4.12;41.81;94868.47;5024167;28;20061;-70
2022/03/26 04:45:44;;;;;;;20.15;7.97;;;;;;;4.15;41.62;94874.06;5024083;28;20052;-70
2022/03/26 04:48:09;;;;;;;19.15;7.43;;;;;;;4.15;41.98;94873.25;5024237;28;20025;-71
2022/03/26 04:50:35;;;;;;;21.05;8.50;;;;;;;4.18;41.79;94878.03;5023986;28;20030;-71
2022/03/26 04:53:00;;;;;;;20.17;9.50;;;;;;;4.16;42.33;94874.84;5024061;28;20367;-71
2022/03/26 04:55:26;;;;;;;17.98;9.48;;;;;;;4.16;42.71;94885.41;5024159;28;20312;-71
2022/03/26 04:57:51;;;;;;;23.15;8.90;;;;;;;4.19;42.76;94890.19;5023003;28;20034;-72
2022/03/26 05:00:19;;;;;;;22.38;9.55;;;;;;;4.21;42.63;94894.19;5023839;28;20056;-71
2022/03/26 05:02:45;;;;;;;32.70;10.95;;;;;;;4.24;42.74;94889.47;5023872;28;20044;-71
2022/03/26 05:05:12;;;;;;;21.63;9.82;;;;;;;4.29;42.59;94892.13;5023763;28;20034;-71
2022/03/26 05:07:48;;;;;;;24.25;10.73;;;;;;;4.31;42.60;94884.78;5023409;28;20033;-71
2022/03/26 05:10:23;;;;;;;29.58;10.05;;;;;;;4.35;42.54;94881.38;5023557;28;20044;-70
2022/03/26 05:12:51;;;;;;;24.58;10.82;;;;;;;4.37;42.50;94892.47;5023503;28;20033;-70
2022/03/26 05:15:18;;;;;;;21.27;10.95;;;;;;;4.39;42.63;94892.25;5023439;28;20021;-70
2022/03/26 05:17:44;;;;;;;21.13;9.48;;;;;;;4.45;42.68;94888.59;5023525;28;20022;-71
2022/03/26 05:20:12;;;;;;;21.67;10.02;;;;;;;4.52;42.83;94888.41;5023530;28;20105;-71
2022/03/26 05:22:38;;;;;;;26.17;10.77;;;;;;;4.55;42.70;94904.56;5023478;28;20052;-71
2022/03/26 05:25:04;;;;;;;25.42;9.80;;;;;;;4.57;42.97;94897.19;5023654;28;20022;-71
2022/03/26 05:27:29;;;;;;;30.55;10.70;;;;;;;4.60;42.79;94891.41;5023413;28;20097;-71
2022/03/26 05:29:55;;;;;;;20.23;9.38;;;;;;;4.68;42.63;94894.63;5023446;28;20066;-71
2022/03/26 05:32:20;;;;;;;28.55;11.38;;;;;;;4.69;42.59;94894.38;5023455;28;20028;-71
2022/03/26 05:34:46;;;;;;;25.85;10.80;;;;;;;4.73;42.61;94900.75;5023227;28;20324;-71
2022/03/26 05:37:12;;;;;;;26.85;10.35;;;;;;;4.75;42.43;94897.88;5023284;28;20021;-71
2022/03/26 05:39:38;;;;;;;29.95;11.40;;;;;;;4.82;42.38;94894.00;5022951;28;20034;-71
2022/03/26 05:42:04;;;;;;;24.52;11.50;;;;;;;4.82;42.75;94904.56;5023131;28;20029;-72
2022/03/26 05:44:30;;;;;;;25.08;10.27;;;;;;;4.84;42.91;94901.66;5023245;28;20026;-71
2022/03/26 05:46:56;;;;;;;28.40;11.05;;;;;;;4.88;43.13;94901.94;5022906;28;20040;-71
2022/03/26 05:49:22;;;;;;;26.88;10.88;;;;;;;4.92;43.45;94906.47;5022777;28;20034;-71
2022/03/26 05:51:48;;;;;;;36.55;10.90;;;;;;;4.94;43.49;94916.78;5022904;28;20096;-71
2022/03/26 05:54:14;;;;;;;27.48;12.10;;;;;;;4.95;43.49;94919.19;5022805;28;20034;-70
2022/03/26 05:56:39;;;;;;;32.20;11.23;;;;;;;4.95;43.49;94913.13;5022875;28;20029;-70
2022/03/26 05:59:06;;;;;;;25.73;11.98;;;;;;;4.99;43.47;94917.63;5022685;28;20026;-70
2022/03/26 06:01:32;;;;;;;18.33;10.77;;;;;;;5.00;43.34;94913.13;5022741;28;20355;-71
2022/03/26 06:03:59;;;;;;;34.65;12.73;;;;;;;5.05;43.33;94918.47;5022869;28;20121;-71
2022/03/26 06:06:25;;;;;;;33.75;12.10;;;;;;;5.10;43.18;94912.44;5022776;28;20041;-71
2022/03/26 06:08:51;;;;;;;25.23;11.05;;;;;;;5.19;43.04;94914.38;5022738;28;20025;-71
2022/03/26 06:11:17;;;;;;;24.02;11.57;;;;;;;5.26;42.80;94918.63;5022859;28;20030;-71
2022/03/26 06:13:43;;;;;;;34.35;12.68;;;;;;;5.32;42.84;94918.41;5022685;28;20025;-71
2022/03/26 06:16:08;;;;;;;30.60;11.93;;;;;;;5.36;42.49;94924.78;5005369;28;20647;-71
2022/03/26 06:18:34;;;;;;;24.88;12.30;;;;;;;5.42;43.35;94923.78;5022798;28;20270;-71
2022/03/26 06:21:06;;;;;;;38.50;11.68;;;;;;;5.49;42.71;94928.03;5022939;28;20022;-72
2022/03/26 06:23:32;;;;;;;34.75;12.20;;;;;;;5.52;42.40;94917.75;5022797;28;20060;-72
2022/03/26 06:25:58;;;;;;;30.40;11.88;;;;;;;5.56;42.48;94915.41;5022965;28;20029;-72
2022/03/26 06:28:24;;;;;;;21.88;11.27;;;;;;;5.63;42.26;94927.34;5004982;28;20064;-72
2022/03/26 06:30:50;;;;;;;25.08;11.52;;;;;;;5.69;41.88;94928.16;5022655;28;20064;-72
2022/03/26 06:33:16;;;;;;;31.35;12.40;;;;;;;5.71;41.83;94926.06;5022773;28;20025;-72
2022/03/26 06:35:43;;;;;;;28.30;12.30;;;;;;;5.80;41.71;94929.00;5022552;28;20388;-72
2022/03/26 06:38:09;;;;;;;26.15;12.40;;;;;;;5.85;41.39;94933.56;5022601;28;20018;-72
2022/03/26 06:40:35;;;;;;;30.50;12.43;;;;;;;5.90;41.00;94929.06;5022588;28;20075;-72
2022/03/26 06:43:00;;;;;;;25.88;11.57;;;;;;;5.97;41.20;94931.53;5022526;28;20041;-72
2022/03/26 06:45:26;;;;;;;27.70;12.73;;;;;;;6.03;41.22;94938.44;5022567;28;20343;-72
2022/03/26 06:47:52;;;;;;;26.25;12.75;;;;;;;6.11;40.82;94935.31;5022442;28;20033;-72
2022/03/26 06:50:18;;;;;;;25.35;12.30;;;;;;;6.19;40.36;94936.66;5022391;28;20024;-72
2022/03/26 06:52:43;;;;;;;32.28;13.20;;;;;;;6.26;40.34;94939.06;5022406;28;20332;-72
2022/03/26 06:55:09;;;;;;;37.30;12.13;;;;;;;6.41;39.81;94947.06;5022709;28;20026;-72
2022/03/26 06:57:36;;;;;;;29.15;12.15;;;;;;;6.46;39.34;94946.28;5022497;28;20313;-73
2022/03/26 07:00:02;;;;;;;25.13;12.15;;;;;;;6.50;39.38;94942.84;5022477;28;20021;-74
2022/03/26 07:02:28;;;;;;;29.98;12.35;;;;;;;6.57;39.54;94948.72;5022258;28;20021;-73
2022/03/26 07:04:54;;;;;;;28.20;12.55;;;;;;;6.65;39.25;94946.59;5022141;28;20109;-73
2022/03/26 07:07:19;;;;;;;27.50;11.50;;;;;;;6.80;38.77;94951.94;5022477;28;20439;-73
2022/03/26 07:09:45;;;;;;;38.17;14.43;;;;;;;6.93;38.69;94959.38;5022259;28;20018;-74
2022/03/26 07:12:11;;;;;;;30.65;12.98;;;;;;;7.05;38.44;94959.13;5022242;28;20068;-73
2022/03/26 07:14:36;;;;;;;35.45;13.10;;;;;;;7.10;38.20;94956.47;5022124;28;20312;-73
2022/03/26 07:17:02;;;;;;;26.35;12.27;;;;;;;7.13;38.13;94957.81;5022184;28;20041;-73
2022/03/26 07:19:28;;;;;;;28.50;13.45;;;;;;;7.09;38.15;94959.41;5022067;28;20022;-73
2022/03/26 07:21:53;;;;;;;28.08;12.82;;;;;;;7.23;37.55;94969.22;5025446;28;20278;-73
2022/03/26 07:24:19;;;;;;;44.78;13.40;;;;;;;7.30;37.08;94957.56;5025286;28;20346;-73
2022/03/26 07:26:45;;;;;;;34.05;13.57;;;;;;;7.33;37.00;94965.78;5025309;28;20021;-73
2022/03/26 07:29:10;;;;;;;28.85;12.60;;;;;;;7.42;36.72;94964.19;5025672;28;20037;-73
2022/03/26 07:31:36;;;;;;;28.27;13.10;;;;;;;7.44;36.55;94964.72;5025657;28;20029;-74
2022/03/26 07:34:02;;;;;;;23.27;12.27;;;;;;;7.49;36.61;94963.13;5025933;28;20292;-74
2022/03/26 07:36:28;;;;;;;37.33;13.88;;;;;;;7.63;36.74;94959.69;5025677;28;20316;-76
2022/03/26 07:38:53;;;;;;;26.13;12.07;;;;;;;7.63;36.60;94961.53;5025384;28;20025;-76
2022/03/26 07:41:19;;;;;;;80.07;16.15;;;;;;;7.81;36.38;94968.13;5025400;28;20024;-79
2022/03/26 07:43:46;;;;;;;60.47;16.00;;;;;;;7.95;36.06;94960.41;5025292;28;20025;-76
2022/03/26 07:46:12;;;;;;;45.10;13.60;;;;;;;8.15;35.80;94971.00;5023716;28;20080;-74
2022/03/26 07:48:38;;;;;;;28.38;11.77;;;;;;;8.31;35.35;94968.28;5023491;28;20022;-77
2022/03/26 07:51:03;;;;;;;29.52;10.90;;;;;;;8.51;34.76;94967.44;5024149;28;20239;-77
2022/03/26 07:53:29;;;;;;;38.67;12.75;;;;;;;8.61;34.16;94973.50;5025024;28;20363;-76
2022/03/26 07:55:55;;;;;;;32.17;12.80;;;;;;;8.65;34.29;94963.13;5024995;28;20025;-77
2022/03/26 07:58:22;;;;;;;36.35;12.10;;;;;;;8.78;34.13;94973.16;5024828;28;20220;-78
2022/03/26 08:00:49;;;;;;;35.47;12.68;;;;;;;8.85;33.60;94972.84;5024762;28;20064;-79
2022/03/26 08:03:14;;;;;;;32.42;12.73;;;;;;;8.71;33.80;94974.53;5024319;28;20022;-78
2022/03/26 08:05:40;;;;;;;39.03;14.18;;;;;;;8.80;33.74;94967.56;5024646;28;20362;-78
2022/03/26 08:08:07;;;;;;;33.28;13.38;;;;;;;8.84;33.50;94973.94;5024307;28;20346;-78
2022/03/26 08:10:34;;;;;;;75.75;17.63;;;;;;;8.93;33.69;94966.94;5023667;28;20021;-78
2022/03/26 08:13:00;;;;;;;27.45;12.65;;;;;;;9.00;33.22;94970.13;5024773;28;20265;-79
2022/03/26 08:15:25;;;;;;;36.33;13.88;;;;;;;9.12;32.68;94967.13;5024983;28;20029;-78
2022/03/26 08:17:51;;;;;;;34.22;12.73;;;;;;;9.15;32.25;94971.88;5024021;28;20036;-78
2022/03/26 08:20:16;;;;;;;23.15;11.80;;;;;;;9.18;32.18;94959.88;5022959;28;20033;-79
2022/03/26 08:22:42;;;;;;;28.63;11.85;;;;;;;9.21;31.82;94956.69;5022958;28;20026;-78
2022/03/26 08:26:19;;;;;;;31.30;12.52;;;;;;;9.17;31.73;94968.94;5023061;28;20362;-78
2022/03/26 08:27:58;;;;;;;27.40;12.32;;;;;;;9.31;32.61;94959.25;5022802;28;20026;-78
2022/03/26 08:30:24;;;;;;;27.38;14.77;;;;;;;9.44;32.78;94969.28;5023016;28;20323;-78
2022/03/26 08:32:49;;;;;;;28.80;11.43;;;;;;;9.63;31.60;94955.28;5022477;28;20108;-78
2022/03/26 08:35:15;;;;;;;23.95;11.05;;;;;;;9.76;31.22;94967.94;5024378;28;20046;-78
2022/03/26 08:37:41;;;;;;;33.92;13.60;;;;;;;9.86;31.10;94956.41;5024504;28;20053;-78
2022/03/26 08:40:07;;;;;;;31.83;13.80;;;;;;;9.79;31.37;94959.41;5024232;28;20026;-78
2022/03/26 08:42:34;;;;;;;27.60;13.45;;;;;;;9.81;31.63;94945.78;5024587;28;20071;-78
2022/03/26 08:45:00;;;;;;;35.97;16.23;;;;;;;10.01;31.26;94948.28;5024186;28;20044;-79
2022/03/26 08:47:26;;;;;;;27.48;11.80;;;;;;;10.20;30.78;94948.34;5024027;28;20029;-79
2022/03/26 08:49:51;;;;;;;32.35;12.20;;;;;;;10.33;30.25;94935.44;5023759;28;20093;-79
2022/03/26 08:52:17;;;;;;;26.08;11.75;;;;;;;10.37;29.84;94933.78;5023834;28;20069;-78
2022/03/26 08:54:43;;;;;;;23.85;11.85;;;;;;;10.52;29.78;94930.94;5023881;28;20044;-78
2022/03/26 08:57:09;;;;;;;34.45;12.63;;;;;;;10.64;29.87;94935.84;5023693;28;20085;-78
2022/03/26 08:59:34;;;;;;;29.88;13.10;;;;;;;10.71;29.91;94935.50;5023926;28;20228;-78
2022/03/26 09:02:00;;;;;;;26.70;12.40;;;;;;;10.87;29.78;94933.41;5023732;28;20224;-78
2022/03/26 09:04:26;;;;;;;33.10;13.43;;;;;;;10.91;29.80;94937.88;5023585;28;20302;-78
2022/03/26 09:06:51;;;;;;;34.28;13.50;;;;;;;11.07;29.68;94929.66;5023634;28;20034;-78
2022/03/26 09:09:17;;;;;;;34.17;13.52;;;;;;;11.21;29.54;94925.16;5023604;28;20211;-78
2022/03/26 09:11:43;;;;;;;34.25;13.25;;;;;;;11.30;29.31;94925.31;5023590;28;20100;-78
2022/03/26 09:14:10;;;;;;;32.55;12.93;;;;;;;11.38;29.45;94933.44;5023610;28;20068;-78
2022/03/26 09:16:36;;;;;;;27.40;13.02;;;;;;;11.44;29.40;94926.16;5023748;28;20255;-78
2022/03/26 09:19:02;;;;;;;31.98;13.80;;;;;;;11.54;29.09;94923.31;5023584;28;20030;-78
2022/03/26 09:21:27;;;;;;;31.42;13.00;;;;;;;11.69;28.90;94924.94;5023408;28;20224;-78
2022/03/26 09:23:53;;;;;;;26.55;13.23;;;;;;;11.74;27.86;94918.69;5023679;28;20323;-78
2022/03/26 09:26:18;;;;;;;21.75;11.02;;;;;;;11.69;27.38;94922.25;5023413;28;20220;-78
2022/03/26 09:28:45;;;;;;;28.30;12.82;;;;;;;11.57;27.68;94921.94;5023552;28;20045;-78
2022/03/26 09:31:11;;;;;;;35.80;12.50;;;;;;;11.62;28.10;94909.28;5023209;28;20014;-78
2022/03/26 09:33:36;;;;;;;31.55;11.90;;;;;;;11.70;28.56;94905.13;5023626;28;20076;-78
2022/03/26 09:36:02;;;;;;;27.10;11.88;;;;;;;11.84;28.42;94905.97;5023620;28;20044;-78
2022/03/26 09:38:27;;;;;;;23.67;11.65;;;;;;;11.96;28.04;94902.03;5023118;28;20092;-78
2022/03/26 09:40:53;;;;;;;30.13;11.52;;;;;;;12.12;27.34;94913.25;5023153;28;20021;-78
2022/03/26 09:43:19;;;;;;;28.27;12.43;;;;;;;12.09;27.17;94898.59;5022692;28;20046;-78
2022/03/26 09:45:44;;;;;;;24.73;12.43;;;;;;;12.18;27.21;94896.81;5023364;28;20084;-78
2022/03/26 09:48:10;;;;;;;19.63;10.60;;;;;;;12.20;28.08;94894.63;5023223;28;20060;-78
2022/03/26 09:50:41;;;;;;;25.10;12.38;;;;;;;12.32;26.97;94890.66;5023274;28;20223;-78
2022/03/26 09:53:10;;;;;;;29.60;13.03;;;;;;;12.32;27.71;94882.66;5023369;28;20092;-78
2022/03/26 09:55:36;;;;;;;20.92;9.52;;;;;;;12.41;27.52;94886.19;5023228;28;20041;-78
2022/03/26 09:58:02;;;;;;;25.75;11.00;;;;;;;12.41;27.66;94894.22;5023083;28;20338;-78
2022/03/26 10:00:27;;;;;;;26.88;11.65;;;;;;;12.54;26.82;94888.06;5022779;28;20037;-78
2022/03/26 10:02:53;;;;;;;31.70;11.55;;;;;;;12.47;27.10;94881.53;5022829;28;20030;-78
2022/03/26 10:05:19;;;;;;;26.50;12.20;;;;;;;12.44;27.29;94877.59;5023112;28;20052;-78
2022/03/26 10:07:46;;;;;;;28.63;12.35;;;;;;;12.37;27.29;94877.97;5005176;28;20044;-78
2022/03/26 10:10:26;;;;;;;25.58;10.80;;;;;;;12.46;27.15;94875.41;5022839;28;20025;-78
2022/03/26 10:12:52;;;;;;;32.20;11.70;;;;;;;12.47;27.00;94873.53;5005365;28;20032;-78
2022/03/26 10:15:18;;;;;;;29.38;11.05;;;;;;;12.49;27.23;94872.13;5022883;28;20018;-78
2022/03/26 10:17:54;;;;;;;;;;;;;;;;;;;;;
2022/03/26 10:20:19;;;;;;;28.95;11.75;;;;;;;12.73;27.41;94871.88;5022629;28;20045;-78
2022/03/26 10:22:51;;;;;;;20.27;9.65;;;;;;;12.78;27.17;94861.06;5022868;28;20220;-78
2022/03/26 10:25:20;;;;;;;33.15;10.38;;;;;;;12.87;27.41;94853.09;5022810;28;20040;-78
2022/03/26 10:27:47;;;;;;;16.73;8.65;;;;;;;12.92;26.43;94866.34;5022728;28;20052;-78
2022/03/26 10:30:15;;;;;;;21.27;8.57;;;;;;;12.85;27.08;94850.72;5022558;28;20205;-78
2022/03/26 10:32:49;;;;;;;25.20;7.80;;;;;;;12.88;27.08;94857.34;5022749;28;20021;-78
2022/03/26 10:35:16;;;;;;;20.58;8.60;;;;;;;13.00;26.65;94844.22;5022418;28;20021;-78
2022/03/26 10:37:56;;;;;;;20.73;10.15;;;;;;;13.09;26.58;94844.31;5022415;28;20036;-78
2022/03/26 10:40:48;;;;;;;25.40;8.30;;;;;;;13.22;26.91;94837.28;5022530;28;20026;-78
2022/03/26 10:43:14;;;;;;;33.87;8.23;;;;;;;13.33;27.15;94835.19;5020315;28;20036;-78
2022/03/26 10:45:50;;;;;;;14.30;7.35;;;;;;;13.52;26.26;94845.69;5022527;28;20268;-79
2022/03/26 10:48:23;;;;;;;16.45;8.75;;;;;;;13.37;26.30;94839.63;5022566;28;20018;-78
2022/03/26 10:50:55;;;;;;;14.05;7.05;;;;;;;13.43;26.44;94837.59;5022055;28;20224;-78
2022/03/26 10:53:20;;;;;;;20.37;7.57;;;;;;;13.51;26.44;94844.09;5022283;28;20300;-78
2022/03/26 10:55:48;;;;;;;14.07;7.45;;;;;;;13.53;25.92;94826.63;5024942;28;20046;-78
2022/03/26 10:58:14;;;;;;;18.25;7.22;;;;;;;13.59;26.42;94836.09;5026144;28;20220;-79
2022/03/26 11:00:42;;;;;;;19.90;7.38;;;;;;;13.72;26.05;94823.75;5026391;28;20197;-78
2022/03/26 11:03:07;;;;;;;17.95;7.05;;;;;;;13.78;26.39;94821.69;5026212;28;20061;-78
2022/03/26 11:05:34;;;;;;;20.27;8.95;;;;;;;13.97;25.75;94818.78;5026099;28;20021;-79
2022/03/26 11:08:01;;;;;;;14.63;7.68;;;;;;;14.07;25.45;94807.78;5025999;28;20339;-78
2022/03/26 11:10:32;;;;;;;15.43;6.45;;;;;;;14.14;25.98;94799.25;5025637;28;20049;-79
2022/03/26 11:13:03;;;;;;;10.65;6.78;;;;;;;14.22;25.55;94793.91;5025979;28;20033;-79
2022/03/26 11:15:34;;;;;;;19.70;6.47;;;;;;;14.32;25.22;94797.41;5025942;28;20041;-79
2022/03/26 11:18:21;;;;;;;11.75;5.38;;;;;;;14.30;24.20;94788.88;5025932;28;20025;-79
2022/03/26 11:21:05;;;;;;;17.33;5.10;;;;;;;14.40;24.48;94784.00;5025778;28;20030;-78
2022/03/26 11:23:48;;;;;;;14.95;4.82;;;;;;;14.45;23.71;94783.09;5025429;28;20101;-78